createdAt,value
2023-08-28T00:02:21.954Z,97366.09
2023-08-28T00:04:48.626Z,97377.91
2023-08-28T00:07:15.306Z,97367.28
2023-08-28T00:09:42.002Z,97372.97
2023-08-28T00:12:08.982Z,97378.72
2023-08-28T00:14:35.760Z,97372.63
2023-08-28T00:17:02.690Z,97373.22
2023-08-28T00:19:29.355Z,97375.31
2023-08-28T00:21:56.045Z,97376.38
2023-08-28T00:24:22.727Z,97378.38
2023-08-28T00:26:49.782Z,97376.09
2023-08-28T00:29:16.467Z,97369.44
2023-08-28T00:31:43.510Z,97364.94
2023-08-28T00:34:10.292Z,97358.41
2023-08-28T00:36:36.946Z,97366.75
2023-08-28T00:39:03.867Z,97360.41
2023-08-28T00:41:30.651Z,97351.22
2023-08-28T00:43:57.638Z,97351.84
2023-08-28T00:46:24.324Z,97345.09
2023-08-28T00:48:51.017Z,97350.56
2023-08-28T00:51:17.839Z,97342.84
2023-08-28T00:53:44.541Z,97349.38
2023-08-28T00:56:12.613Z,97347.75
2023-08-28T00:58:39.912Z,97337.53
2023-08-28T01:01:06.758Z,97337.13
2023-08-28T01:03:33.463Z,97343.06
2023-08-28T01:06:20.167Z,97348.38
2023-08-28T01:09:14.925Z,97337.34
2023-08-28T01:12:04.910Z,97342.09
2023-08-28T01:14:31.872Z,97337.78
2023-08-28T01:17:04.754Z,97331.69
2023-08-28T01:19:38.665Z,97322.09
2023-08-28T01:22:17.050Z,97315.16
2023-08-28T01:25:07.209Z,97312.94
2023-08-28T01:27:33.936Z,97310.06
2023-08-28T01:30:12.147Z,97306.84
2023-08-28T01:32:39.526Z,97307.66
2023-08-28T01:35:14.454Z,97305.84
2023-08-28T01:38:06.219Z,97302.19
2023-08-28T01:40:41.681Z,97317.31
2023-08-28T01:43:09.161Z,97309.34
2023-08-28T01:45:38.718Z,97303.22
2023-08-28T01:48:06.620Z,97303.03
2023-08-28T01:50:33.582Z,97319.34
2023-08-28T01:53:00.930Z,97324.63
2023-08-28T01:56:09.345Z,97341.97
2023-08-28T01:58:46.473Z,97354.41
2023-08-28T02:01:13.392Z,97369.47
2023-08-28T02:03:40.271Z,97379.03
2023-08-28T02:06:07.384Z,97380.25
2023-08-28T02:08:34.442Z,97383.09
2023-08-28T02:11:01.152Z,97379.25
2023-08-28T02:13:27.951Z,97372.13
2023-08-28T02:15:54.644Z,97368.22
2023-08-28T02:18:21.331Z,97363.75
2023-08-28T02:20:49.893Z,97354.78
2023-08-28T02:23:16.536Z,97355.59
2023-08-28T02:25:47.236Z,97360.06
2023-08-28T02:28:13.962Z,97361.53
2023-08-28T02:30:40.689Z,97364.78
2023-08-28T02:33:07.622Z,97364.97
2023-08-28T02:35:34.739Z,97367.63
2023-08-28T02:38:01.473Z,97375.38
2023-08-28T02:40:28.092Z,97381.06
2023-08-28T02:42:55.056Z,97398.59
2023-08-28T02:45:21.850Z,97401.63
2023-08-28T02:47:48.534Z,97410.00
2023-08-28T02:50:15.437Z,97411.81
2023-08-28T02:52:42.102Z,97417.75
2023-08-28T02:55:09.218Z,97414.91
2023-08-28T02:57:36.043Z,97418.31
2023-08-28T03:00:02.784Z,97413.84
2023-08-28T03:02:29.782Z,97413.84
2023-08-28T03:04:56.441Z,97406.13
2023-08-28T03:07:23.643Z,97407.53
2023-08-28T03:09:50.368Z,97398.38
2023-08-28T03:12:17.062Z,97391.41
2023-08-28T03:14:43.999Z,97385.09
2023-08-28T03:17:13.000Z,97377.19
2023-08-28T03:19:41.249Z,97374.34
2023-08-28T03:22:08.140Z,97366.16
2023-08-28T03:24:38.245Z,97367.16
2023-08-28T03:27:05.076Z,97354.53
2023-08-28T03:29:32.001Z,97359.63
2023-08-28T03:31:59.204Z,97354.75
2023-08-28T03:34:25.937Z,97349.88
2023-08-28T03:36:52.849Z,97351.50
2023-08-28T03:39:19.509Z,97349.66
2023-08-28T03:41:46.170Z,97349.66
2023-08-28T03:44:13.352Z,97355.34
2023-08-28T03:46:40.059Z,97345.19
2023-08-28T03:49:06.765Z,97347.41
2023-08-28T03:51:33.550Z,97342.13
2023-08-28T03:54:02.251Z,97347.03
2023-08-28T03:56:30.833Z,97348.84
2023-08-28T03:58:57.512Z,97344.97
2023-08-28T04:01:24.256Z,97348.22
2023-08-28T04:03:50.999Z,97348.63
2023-08-28T04:06:17.723Z,97358.19
2023-08-28T04:08:44.401Z,97360.44
2023-08-28T04:11:11.407Z,97358.19
2023-08-28T04:13:38.042Z,97349.66
2023-08-28T04:16:07.052Z,97344.34
2023-08-28T04:18:34.117Z,97340.88
2023-08-28T04:21:04.541Z,97336.84
2023-08-28T04:23:31.171Z,97345.16
2023-08-28T04:25:58.107Z,97353.72
2023-08-28T04:28:24.786Z,97344.34
2023-08-28T04:30:51.527Z,97351.47
2023-08-28T04:33:18.225Z,97350.88
2023-08-28T04:35:44.909Z,97346.59
2023-08-28T04:38:11.636Z,97350.47
2023-08-28T04:40:38.617Z,97347.03
2023-08-28T04:43:05.639Z,97358.22
2023-08-28T04:45:32.694Z,97364.59
2023-08-28T04:47:59.475Z,97370.91
2023-08-28T04:50:26.196Z,97378.97
2023-08-28T04:52:53.370Z,97374.09
2023-08-28T04:55:20.082Z,97376.59
2023-08-28T04:57:46.711Z,97390.00
2023-08-28T05:00:14.020Z,97399.53
2023-08-28T05:02:40.821Z,97398.28
2023-08-28T05:05:08.044Z,97404.88
2023-08-28T05:07:34.795Z,97409.44
2023-08-28T05:10:01.553Z,97411.69
2023-08-28T05:12:28.225Z,97411.97
2023-08-28T05:14:54.947Z,97416.47
2023-08-28T05:17:21.956Z,97417.94
2023-08-28T05:19:48.612Z,97414.03
2023-08-28T05:22:15.296Z,97409.38
2023-08-28T05:24:41.997Z,97408.38
2023-08-28T05:27:09.559Z,97404.91
2023-08-28T05:29:36.300Z,97409.59
2023-08-28T05:32:03.459Z,97402.25
2023-08-28T05:34:30.479Z,97409.59
2023-08-28T05:36:57.117Z,97400.81
2023-08-28T05:39:24.090Z,97396.75
2023-08-28T05:41:50.766Z,97397.78
2023-08-28T05:44:17.514Z,97389.22
2023-08-28T05:46:44.503Z,97397.16
2023-08-28T05:49:11.240Z,97397.97
2023-08-28T05:51:38.106Z,97405.09
2023-08-28T05:54:05.070Z,97405.31
2023-08-28T05:56:31.791Z,97399.59
2023-08-28T05:58:58.750Z,97407.75
2023-08-28T06:01:25.430Z,97401.81
2023-08-28T06:03:57.314Z,97397.97
2023-08-28T06:06:24.884Z,97398.34
2023-08-28T06:08:51.623Z,97408.13
2023-08-28T06:11:18.318Z,97407.13
2023-08-28T06:13:45.302Z,97408.75
2023-08-28T06:16:12.138Z,97400.59
2023-08-28T06:18:38.912Z,97411.38
2023-08-28T06:21:05.598Z,97413.44
2023-08-28T06:23:32.343Z,97413.84
2023-08-28T06:25:59.032Z,97407.34
2023-08-28T06:28:26.039Z,97407.75
2023-08-28T06:30:52.855Z,97401.81
2023-08-28T06:33:19.552Z,97398.56
2023-08-28T06:35:46.240Z,97395.94
2023-08-28T06:38:13.582Z,97395.94
2023-08-28T06:40:40.621Z,97395.31
2023-08-28T06:43:07.335Z,97401.88
2023-08-28T06:45:34.233Z,97400.44
2023-08-28T06:48:01.856Z,97390.84
2023-08-28T06:50:28.613Z,97393.28
2023-08-28T06:52:55.683Z,97392.47
2023-08-28T06:55:22.413Z,97386.34
2023-08-28T06:57:50.288Z,97374.94
2023-08-28T07:00:17.682Z,97373.50
2023-08-28T07:02:44.525Z,97370.66
2023-08-28T07:05:11.373Z,97366.97
2023-08-28T07:07:39.051Z,97360.88
2023-08-28T07:10:06.643Z,97362.31
2023-08-28T07:12:34.508Z,97351.47
2023-08-28T07:15:27.339Z,97354.34
2023-08-28T07:17:54.112Z,97348.81
2023-08-28T07:20:21.781Z,97351.47
2023-08-28T07:22:54.786Z,97359.19
2023-08-28T07:25:23.777Z,97352.84
2023-08-28T07:27:51.131Z,97340.84
2023-08-28T07:30:18.322Z,97338.78
2023-08-28T07:32:45.138Z,97338.34
2023-08-28T07:35:12.219Z,97334.63
2023-08-28T07:37:38.900Z,97328.44
2023-08-28T07:40:07.281Z,97327.28
2023-08-28T07:42:34.579Z,97321.59
2023-08-28T07:45:01.249Z,97325.63
2023-08-28T07:47:28.212Z,97311.47
2023-08-28T07:49:55.287Z,97301.00
2023-08-28T07:52:21.984Z,97303.00
2023-08-28T07:54:48.683Z,97305.56
2023-08-28T07:57:15.541Z,97310.00
2023-08-28T07:59:42.302Z,97308.56
2023-08-28T08:02:09.302Z,97314.00
2023-08-28T08:04:39.167Z,97313.53
2023-08-28T08:07:05.905Z,97311.75
2023-08-28T08:09:32.631Z,97307.34
2023-08-28T08:11:59.362Z,97312.09
2023-08-28T08:14:26.379Z,97306.59
2023-08-28T08:16:53.146Z,97316.19
2023-08-28T08:19:19.838Z,97322.09
2023-08-28T08:21:46.599Z,97338.25
2023-08-28T08:24:13.341Z,97330.94
2023-08-28T08:26:40.367Z,97325.69
2023-08-28T08:29:07.020Z,97331.19
2023-08-28T08:31:33.810Z,97339.72
2023-08-28T08:34:00.840Z,97341.44
2023-08-28T08:36:27.537Z,97340.72
2023-08-28T08:38:54.255Z,97351.75
2023-08-28T08:41:21.366Z,97355.09
2023-08-28T08:43:48.048Z,97360.31
2023-08-28T08:46:14.927Z,97357.59
2023-08-28T08:48:41.947Z,97369.94
2023-08-28T08:51:09.281Z,97376.69
2023-08-28T08:53:42.930Z,97381.16
2023-08-28T08:56:10.910Z,97379.94
2023-08-28T08:58:37.575Z,97373.78
2023-08-28T09:01:05.856Z,97374.53
2023-08-28T09:03:33.128Z,97373.44
2023-08-28T09:06:00.620Z,97362.16
2023-08-28T09:08:27.691Z,97369.28
2023-08-28T09:10:54.417Z,97370.72
2023-08-28T09:13:21.188Z,97373.19
2023-08-28T09:15:47.899Z,97363.56
2023-08-28T09:18:14.700Z,97363.97
2023-08-28T09:20:41.773Z,97355.00
2023-08-28T09:23:08.632Z,97355.66
2023-08-28T09:25:35.477Z,97354.75
2023-08-28T09:28:02.252Z,97344.78
2023-08-28T09:30:39.095Z,97346.53
2023-08-28T09:33:07.775Z,97334.81
2023-08-28T09:35:39.295Z,97339.47
2023-08-28T09:38:06.122Z,97328.88
2023-08-28T09:40:33.954Z,97328.59
2023-08-28T09:43:12.632Z,97325.25
2023-08-28T09:45:39.611Z,97325.78
2023-08-28T09:48:07.397Z,97317.22
2023-08-28T09:50:35.314Z,97309.94
2023-08-28T09:53:15.222Z,97312.00
2023-08-28T09:55:50.610Z,97308.59
2023-08-28T09:58:17.532Z,97307.66
2023-08-28T10:00:52.311Z,97309.28
2023-08-28T10:03:20.136Z,97318.34
2023-08-28T10:05:47.480Z,97329.72
2023-08-28T10:08:15.307Z,97338.63
2023-08-28T10:10:43.293Z,97339.94
2023-08-28T10:13:18.347Z,97340.50
2023-08-28T10:16:05.276Z,97349.06
2023-08-28T10:18:45.801Z,97362.06
2023-08-28T10:21:12.885Z,97362.72
2023-08-28T10:23:39.564Z,97371.34
2023-08-28T10:26:06.273Z,97366.00
2023-08-28T10:28:33.116Z,97367.84
2023-08-28T10:31:00.305Z,97377.81
2023-08-28T10:33:27.127Z,97384.09
2023-08-28T10:35:55.218Z,97394.09
2023-08-28T10:38:22.249Z,97392.91
2023-08-28T10:40:53.453Z,97401.03
2023-08-28T10:43:22.905Z,97407.72
2023-08-28T10:45:53.367Z,97402.41
2023-08-28T10:48:21.453Z,97399.47
2023-08-28T10:50:48.271Z,97399.44
2023-08-28T10:53:15.547Z,97400.28
2023-08-28T10:55:55.541Z,97399.66
2023-08-28T10:58:22.768Z,97392.16
2023-08-28T11:00:49.686Z,97383.00
2023-08-28T11:03:16.904Z,97377.25
2023-08-28T11:05:43.838Z,97388.06
2023-08-28T11:08:13.040Z,97377.19
2023-08-28T11:10:42.397Z,97366.56
2023-08-28T11:13:12.618Z,97354.88
2023-08-28T11:15:43.259Z,97340.75
2023-08-28T11:18:27.446Z,97333.03
2023-08-28T11:21:01.757Z,97339.72
2023-08-28T11:23:37.440Z,97332.69
2023-08-28T11:26:08.868Z,97313.84
2023-08-28T11:28:52.144Z,97310.06
2023-08-28T11:31:21.030Z,97296.56
2023-08-28T11:33:50.808Z,97304.38
2023-08-28T11:36:20.573Z,97300.06
2023-08-28T11:38:47.970Z,97294.09
2023-08-28T11:41:14.815Z,97287.72
2023-08-28T11:43:43.581Z,97280.41
2023-08-28T11:46:11.942Z,97265.72
2023-08-28T11:48:41.430Z,97262.88
2023-08-28T11:51:09.395Z,97266.84
2023-08-28T11:53:44.072Z,97256.28
2023-08-28T11:56:13.189Z,97255.94
2023-08-28T11:58:41.210Z,97233.31
2023-08-28T12:01:15.064Z,97235.09
2023-08-28T12:03:43.381Z,97224.88
2023-08-28T12:06:13.567Z,97215.75
2023-08-28T12:08:42.251Z,97229.84
2023-08-28T12:11:10.385Z,97235.22
2023-08-28T12:13:37.760Z,97244.75
2023-08-28T12:16:12.657Z,97264.97
2023-08-28T12:18:50.723Z,97266.56
2023-08-28T12:21:18.408Z,97254.94
2023-08-28T12:23:57.106Z,97246.13
2023-08-28T12:26:27.803Z,97249.81
2023-08-28T12:28:54.715Z,97260.97
2023-08-28T12:31:29.141Z,97264.88
2023-08-28T12:33:56.246Z,97253.91
2023-08-28T12:36:34.855Z,97242.38
2023-08-28T12:39:01.600Z,97265.00
2023-08-28T12:41:28.709Z,97274.16
2023-08-28T12:43:55.395Z,97273.56
2023-08-28T12:46:22.626Z,97268.16
2023-08-28T12:48:49.352Z,97257.75
2023-08-28T12:51:16.071Z,97240.88
2023-08-28T12:53:42.811Z,97225.34
2023-08-28T12:56:09.520Z,97235.75
2023-08-28T12:58:37.004Z,97251.53
2023-08-28T13:01:05.626Z,97246.31
2023-08-28T13:03:32.522Z,97247.78
2023-08-28T13:05:59.212Z,97255.09
2023-08-28T13:08:25.958Z,97257.53
2023-08-28T13:10:52.656Z,97275.19
2023-08-28T13:13:19.885Z,97281.31
2023-08-28T13:15:59.104Z,97278.28
2023-08-28T13:18:26.098Z,97267.50
2023-08-28T13:20:52.788Z,97253.91
2023-08-28T13:23:19.598Z,97242.59
2023-08-28T13:25:46.457Z,97252.16
2023-08-28T13:28:14.326Z,97263.19
2023-08-28T13:30:41.038Z,97267.56
2023-08-28T13:33:08.029Z,97260.47
2023-08-28T13:35:35.304Z,97251.69
2023-08-28T13:38:02.023Z,97255.53
2023-08-28T13:40:29.296Z,97234.56
2023-08-28T13:42:56.090Z,97238.47
2023-08-28T13:45:22.880Z,97229.31
2023-08-28T13:47:49.858Z,97238.72
2023-08-28T13:50:16.882Z,97247.22
2023-08-28T13:52:46.415Z,97247.63
2023-08-28T13:55:13.795Z,97243.59
2023-08-28T13:57:40.684Z,97240.44
2023-08-28T14:00:13.209Z,97248.09
2023-08-28T14:02:41.851Z,97242.31
2023-08-28T14:05:13.592Z,97254.94
2023-08-28T14:07:42.444Z,97267.28
2023-08-28T14:10:09.964Z,97275.09
2023-08-28T14:12:37.032Z,97283.00
2023-08-28T14:15:04.557Z,97283.19
2023-08-28T14:17:31.729Z,97282.25
2023-08-28T14:19:58.964Z,97278.97
2023-08-28T14:22:26.330Z,97280.63
2023-08-28T14:24:53.268Z,97280.63
2023-08-28T14:27:20.087Z,97286.00
2023-08-28T14:29:46.816Z,97274.16
2023-08-28T14:32:15.012Z,97260.78
2023-08-28T14:34:42.082Z,97231.09
2023-08-28T14:37:09.116Z,97234.03
2023-08-28T14:39:35.833Z,97231.25
2023-08-28T14:42:02.473Z,97229.78
2023-08-28T14:44:29.253Z,97229.31
2023-08-28T14:46:56.067Z,97226.13
2023-08-28T14:49:22.820Z,97237.06
2023-08-28T14:51:49.508Z,97241.59
2023-08-28T14:54:16.389Z,97242.78
2023-08-28T14:56:43.127Z,97244.69
2023-08-28T14:59:09.842Z,97250.59
2023-08-28T15:01:36.986Z,97271.28
2023-08-28T15:04:04.093Z,97266.34
2023-08-28T15:06:30.825Z,97270.19
2023-08-28T15:08:58.006Z,97259.41
2023-08-28T15:11:24.708Z,97248.19
2023-08-28T15:13:52.292Z,97242.84
2023-08-28T15:16:19.363Z,97234.91
2023-08-28T15:18:46.929Z,97238.06
2023-08-28T15:21:13.719Z,97240.94
2023-08-28T15:23:40.460Z,97243.06
2023-08-28T15:26:07.322Z,97240.25
2023-08-28T15:28:34.593Z,97234.44
2023-08-28T15:31:01.919Z,97244.66
2023-08-28T15:33:28.892Z,97256.03
2023-08-28T15:35:55.706Z,97257.97
2023-08-28T15:38:22.420Z,97257.63
2023-08-28T15:40:49.133Z,97251.44
2023-08-28T15:43:17.764Z,97255.97
2023-08-28T15:45:52.396Z,97259.84
2023-08-28T15:48:19.688Z,97257.16
2023-08-28T15:50:47.081Z,97265.63
2023-08-28T15:53:13.825Z,97269.38
2023-08-28T15:55:40.879Z,97260.97
2023-08-28T15:58:07.591Z,97268.16
2023-08-28T16:00:34.352Z,97263.06
2023-08-28T16:03:01.384Z,97265.91
2023-08-28T16:05:29.280Z,97273.28
2023-08-28T16:07:56.058Z,97278.31
2023-08-28T16:10:23.158Z,97268.97
2023-08-28T16:12:50.150Z,97259.06
2023-08-28T16:15:16.857Z,97254.94
2023-08-28T16:17:43.747Z,97252.91
2023-08-28T16:20:11.012Z,97253.00
2023-08-28T16:22:38.000Z,97242.72
2023-08-28T16:25:05.330Z,97228.66
2023-08-28T16:27:34.771Z,97221.94
2023-08-28T16:30:02.087Z,97219.34
2023-08-28T16:32:30.662Z,97229.06
2023-08-28T16:34:58.310Z,97230.91
2023-08-28T16:37:25.302Z,97236.72
2023-08-28T16:39:52.245Z,97228.38
2023-08-28T16:42:19.250Z,97226.38
2023-08-28T16:44:46.297Z,97227.22
2023-08-28T16:47:13.016Z,97237.16
2023-08-28T16:49:39.810Z,97237.97
2023-08-28T16:52:06.796Z,97245.50
2023-08-28T16:54:33.508Z,97244.94
2023-08-28T16:57:00.251Z,97246.72
2023-08-28T16:59:27.004Z,97258.09
2023-08-28T17:01:54.049Z,97248.72
2023-08-28T17:04:21.112Z,97248.75
2023-08-28T17:06:58.823Z,97250.81
2023-08-28T17:09:29.095Z,97248.41
2023-08-28T17:11:55.839Z,97243.16
2023-08-28T17:14:22.665Z,97252.91
2023-08-28T17:16:49.410Z,97253.31
2023-08-28T17:19:16.489Z,97259.22
2023-08-28T17:21:43.270Z,97251.91
2023-08-28T17:24:10.015Z,97241.50
2023-08-28T17:26:36.768Z,97237.44
2023-08-28T17:29:03.796Z,97223.34
2023-08-28T17:31:30.947Z,97219.56
2023-08-28T17:33:57.755Z,97231.94
2023-08-28T17:36:24.702Z,97245.22
2023-08-28T17:39:10.772Z,97242.97
2023-08-28T17:41:37.515Z,97254.59
2023-08-28T17:44:04.532Z,97251.53
2023-08-28T17:46:31.403Z,97242.56
2023-08-28T17:48:58.156Z,97222.44
2023-08-28T17:51:24.815Z,97212.88
2023-08-28T17:53:51.533Z,97205.13
2023-08-28T17:56:18.262Z,97191.31
2023-08-28T17:58:45.015Z,97194.78
2023-08-28T18:01:12.100Z,97195.59
2023-08-28T18:03:39.997Z,97203.31
2023-08-28T18:06:07.171Z,97205.75
2023-08-28T18:08:33.913Z,97210.03
2023-08-28T18:11:00.737Z,97214.50
2023-08-28T18:13:28.399Z,97223.47
2023-08-28T18:15:55.361Z,97244.81
2023-08-28T18:18:22.202Z,97253.78
2023-08-28T18:20:50.204Z,97246.88
2023-08-28T18:23:17.168Z,97247.88
2023-08-28T18:25:44.027Z,97248.28
2023-08-28T18:28:13.605Z,97245.00
2023-08-28T18:30:40.685Z,97253.13
2023-08-28T18:33:07.665Z,97263.94
2023-08-28T18:35:34.782Z,97271.88
2023-08-28T18:38:01.779Z,97277.59
2023-08-28T18:40:29.086Z,97284.53
2023-08-28T18:42:55.905Z,97272.28
2023-08-28T18:45:23.618Z,97280.41
2023-08-28T18:47:51.926Z,97270.03
2023-08-28T18:50:18.995Z,97263.91
2023-08-28T18:52:45.784Z,97262.50
2023-08-28T18:55:30.325Z,97264.91
2023-08-28T18:57:59.635Z,97266.53
2023-08-28T19:00:28.915Z,97274.31
2023-08-28T19:02:56.800Z,97260.66
2023-08-28T19:05:24.804Z,97266.97
2023-08-28T19:07:51.926Z,97270.03
2023-08-28T19:10:19.003Z,97264.72
2023-08-28T19:12:45.964Z,97261.25
2023-08-28T19:15:13.008Z,97267.78
2023-08-28T19:17:40.178Z,97280.03
2023-08-28T19:20:07.325Z,97279.41
2023-08-28T19:22:34.665Z,97269.63
2023-08-28T19:25:04.448Z,97282.66
2023-08-28T19:27:31.631Z,97278.00
2023-08-28T19:29:58.304Z,97260.25
2023-08-28T19:32:37.965Z,97257.22
2023-08-28T19:35:19.185Z,97259.66
2023-08-28T19:37:47.585Z,97256.63
2023-08-28T19:40:14.495Z,97269.66
2023-08-28T19:42:42.256Z,97265.38
2023-08-28T19:45:09.795Z,97263.13
2023-08-28T19:47:37.337Z,97264.97
2023-08-28T19:50:04.950Z,97255.97
2023-08-28T19:52:31.686Z,97258.06
2023-08-28T19:54:58.400Z,97264.56
2023-08-28T19:57:28.568Z,97256.41
2023-08-28T19:59:55.865Z,97246.44
2023-08-28T20:02:22.922Z,97242.97
2023-08-28T20:04:49.758Z,97247.19
2023-08-28T20:07:16.668Z,97261.91
2023-08-28T20:09:43.458Z,97261.09
2023-08-28T20:12:11.073Z,97269.28
2023-08-28T20:14:41.954Z,97269.47
2023-08-28T20:17:09.586Z,97267.00
2023-08-28T20:19:36.781Z,97272.13
2023-08-28T20:22:05.168Z,97269.88
2023-08-28T20:24:35.022Z,97268.66
2023-08-28T20:27:01.951Z,97270.47
2023-08-28T20:29:29.254Z,97259.25
2023-08-28T20:31:55.983Z,97241.97
2023-08-28T20:34:22.775Z,97236.66
2023-08-28T20:36:49.508Z,97229.91
2023-08-28T20:39:16.332Z,97217.53
2023-08-28T20:41:43.421Z,97215.88
2023-08-28T20:44:10.393Z,97208.38
2023-08-28T20:46:40.464Z,97209.16
2023-08-28T20:49:07.228Z,97212.63
2023-08-28T20:51:34.351Z,97217.09
2023-08-28T20:54:01.478Z,97208.78
2023-08-28T20:56:28.177Z,97209.59
2023-08-28T20:58:54.880Z,97204.09
2023-08-28T21:01:21.584Z,97200.66
2023-08-28T21:03:48.299Z,97195.34
2023-08-28T21:06:15.031Z,97191.88
2023-08-28T21:08:44.937Z,97182.94
2023-08-28T21:11:11.818Z,97171.31
2023-08-28T21:13:38.677Z,97159.50
2023-08-28T21:16:05.539Z,97163.97
2023-08-28T21:18:32.401Z,97178.47
2023-08-28T21:21:04.818Z,97178.25
2023-08-28T21:23:31.986Z,97186.19
2023-08-28T21:25:59.356Z,97197.38
2023-08-28T21:28:27.614Z,97195.97
2023-08-28T21:31:05.019Z,97191.25
2023-08-28T21:33:32.728Z,97193.50
2023-08-28T21:36:00.325Z,97185.75
2023-08-28T21:38:27.432Z,97186.78
2023-08-28T21:40:55.381Z,97189.22
2023-08-28T21:43:22.478Z,97188.41
2023-08-28T21:46:01.869Z,97188.03
2023-08-28T21:48:29.014Z,97194.13
2023-08-28T21:50:55.764Z,97192.50
2023-08-28T21:53:22.532Z,97198.19
2023-08-28T21:55:55.167Z,97192.25
2023-08-28T21:58:22.012Z,97187.78
2023-08-28T22:00:48.734Z,97177.44
2023-08-28T22:03:15.811Z,97168.88
2023-08-28T22:05:43.554Z,97156.28
2023-08-28T22:08:10.729Z,97153.81
2023-08-28T22:10:41.573Z,97152.38
2023-08-28T22:13:08.446Z,97148.34
2023-08-28T22:15:35.788Z,97147.72
2023-08-28T22:18:02.933Z,97147.72
2023-08-28T22:20:30.048Z,97137.75
2023-08-28T22:22:56.885Z,97132.22
2023-08-28T22:25:23.930Z,97151.56
2023-08-28T22:27:51.726Z,97160.97
2023-08-28T22:30:18.836Z,97155.47
2023-08-28T22:32:45.804Z,97153.41
2023-08-28T22:35:12.610Z,97153.63
2023-08-28T22:37:39.362Z,97151.38
2023-08-28T22:40:08.272Z,97156.31
2023-08-28T22:42:35.054Z,97161.16
2023-08-28T22:45:02.129Z,97155.28
2023-08-28T22:47:32.155Z,97140.25
2023-08-28T22:49:58.904Z,97144.09
2023-08-28T22:52:25.658Z,97140.63
2023-08-28T22:54:52.350Z,97142.28
2023-08-28T22:57:19.046Z,97146.94
2023-08-28T22:59:45.953Z,97152.84
2023-08-28T23:02:12.594Z,97167.09
2023-08-28T23:04:39.277Z,97158.75
2023-08-28T23:07:06.208Z,97151.44
2023-08-28T23:09:32.887Z,97150.84
2023-08-28T23:11:59.856Z,97142.09
2023-08-28T23:14:26.918Z,97140.06
2023-08-28T23:16:53.678Z,97132.53
2023-08-28T23:19:20.332Z,97132.94
2023-08-28T23:21:47.028Z,97129.25
2023-08-28T23:24:14.729Z,97133.97
2023-08-28T23:26:41.676Z,97127.84
2023-08-28T23:29:08.380Z,97122.97
2023-08-28T23:31:35.989Z,97117.47
2023-08-28T23:34:04.387Z,97125.59
2023-08-28T23:36:31.209Z,97116.03
2023-08-28T23:38:57.876Z,97126.41
2023-08-28T23:41:24.871Z,97116.84
2023-08-28T23:43:51.618Z,97112.16
2023-08-28T23:46:18.390Z,97102.59
2023-08-28T23:48:45.184Z,97103.44
2023-08-28T23:51:11.935Z,97097.94
2023-08-28T23:53:38.959Z,97096.94
2023-08-28T23:56:05.622Z,97089.19
2023-08-28T23:58:32.717Z,97091.84
